Terminal Aerodrome Forecast
Issued by NWS

Home | Current Version | Previous Version | Text Only | Print | Product List | Glossary On
Versions: 1 2 3 4 5 6 7 8 9 10 11 12 13 14 15 16 17 18 19 20 21 22 23 24 25 26 27 28 29 30 31 32 33 34 35
000
FTAK31 PANC 231130
TAFADL
TAF
PADL 231130Z 2312/2412 36008KT P6SM SCT200
     FM240000 18006KT 2SM -SN OVC015
     FM240300 18006KT 2SM -RA BKN007
     FM240900 21005KT 4SM BR BKN011
      AMD LTD TO CLD VIS AND WIND TIL 231600=

USA.gov is the U.S. government's official web portal to all federal, state and local government web resources and services.